Time;durP1;ratioP1;P1;durP2;ratioP2;P2;SDS_P1;SDS_P2;PMS_P1;PMS_P2;Temp;Humidity;BMP_temperature;BMP_pressure;BME280_temperature;BME280_humidity;BME280_pressure;Samples;Min_cycle;Max_cycle;Signal;HPM_P1;HPM_P2
2021/05/03 00:01:52;;;;;;;15.70;13.23;;;5.80;99.90;;;;;;5054579;28;20483;-74
2021/05/03 00:04:18;;;;;;;17.90;13.77;;;5.80;99.90;;;;;;5072342;28;20013;-74
2021/05/03 00:06:43;;;;;;;17.08;13.07;;;5.70;99.90;;;;;;5072070;28;20028;-74
2021/05/03 00:09:09;;;;;;;16.70;11.80;;;5.60;99.90;;;;;;5037660;28;20483;-74
2021/05/03 00:11:35;;;;;;;19.02;13.15;;;5.70;99.90;;;;;;5054262;28;20036;-77
2021/05/03 00:14:01;;;;;;;19.70;13.18;;;5.60;99.90;;;;;;5072227;28;20045;-77
2021/05/03 00:16:27;;;;;;;17.48;13.55;;;5.60;99.90;;;;;;5071848;28;20024;-77
2021/05/03 00:18:53;;;;;;;17.88;14.02;;;5.60;99.90;;;;;;5072148;28;20039;-77
2021/05/03 00:21:19;;;;;;;19.48;14.20;;;5.50;99.90;;;;;;5072192;28;20028;-74
2021/05/03 00:23:44;;;;;;;17.63;13.75;;;5.70;99.90;;;;;;5054137;28;20411;-74
2021/05/03 00:26:11;;;;;;;21.17;14.35;;;5.60;99.90;;;;;;5053983;28;20055;-75
2021/05/03 00:28:41;;;;;;;23.27;15.10;;;5.60;99.90;;;;;;5072015;28;20070;-75
2021/05/03 00:31:07;;;;;;;17.42;13.98;;;5.60;99.90;;;;;;5072132;28;20357;-75
2021/05/03 00:33:33;;;;;;;17.85;14.27;;;5.70;99.90;;;;;;5053970;28;20078;-75
2021/05/03 00:35:59;;;;;;;19.15;14.55;;;5.70;99.90;;;;;;5053833;28;20031;-75
2021/05/03 00:38:25;;;;;;;18.50;14.60;;;5.80;99.90;;;;;;5071988;28;20040;-75
2021/05/03 00:40:51;;;;;;;17.52;14.00;;;5.80;99.90;;;;;;5071938;28;20050;-75
2021/05/03 00:43:20;;;;;;;18.20;13.90;;;5.90;99.90;;;;;;5060733;28;20063;-75
2021/05/03 00:45:50;;;;;;;17.52;13.40;;;6.00;99.90;;;;;;5078491;28;20112;-75
2021/05/03 00:48:16;;;;;;;16.60;13.93;;;6.10;99.90;;;;;;5078432;28;20020;-75
2021/05/03 00:50:46;;;;;;;17.95;13.85;;;5.90;99.90;;;;;;5060692;28;20097;-75
2021/05/03 00:53:12;;;;;;;16.08;13.00;;;5.90;99.90;;;;;;5060511;28;20491;-75
2021/05/03 00:55:38;;;;;;;19.70;14.27;;;5.80;99.90;;;;;;5060266;28;20025;-75
2021/05/03 00:58:05;;;;;;;17.02;13.63;;;5.90;99.90;;;;;;5078450;28;20103;-75
2021/05/03 01:00:31;;;;;;;17.83;15.43;;;5.80;99.90;;;;;;5078292;28;20016;-75
2021/05/03 01:02:58;;;;;;;23.92;14.93;;;5.80;99.90;;;;;;5078280;28;20101;-75
2021/05/03 01:05:27;;;;;;;18.08;14.27;;;5.70;99.90;;;;;;5078385;28;20023;-75
2021/05/03 01:07:53;;;;;;;21.73;16.00;;;5.60;99.90;;;;;;5060238;28;20016;-74
2021/05/03 01:10:19;;;;;;;20.50;15.23;;;5.60;99.90;;;;;;5060285;28;20119;-75
2021/05/03 01:12:44;;;;;;;16.58;13.43;;;5.60;99.90;;;;;;5078258;28;20498;-75
2021/05/03 01:15:11;;;;;;;20.63;14.68;;;5.70;99.90;;;;;;5078198;28;20032;-75
2021/05/03 01:17:40;;;;;;;23.35;15.00;;;5.60;99.90;;;;;;5076684;28;20055;-75
2021/05/03 01:20:12;;;;;;;17.65;13.88;;;5.70;99.90;;;;;;5076939;28;20383;-75
2021/05/03 01:22:38;;;;;;;18.75;15.35;;;5.70;99.90;;;;;;5078248;28;20024;-75
2021/05/03 01:25:06;;;;;;;16.50;13.48;;;5.70;99.90;;;;;;5078127;28;20024;-75
2021/05/03 01:27:34;;;;;;;19.98;14.75;;;5.70;99.90;;;;;;5077896;28;20024;-75
2021/05/03 01:30:04;;;;;;;18.13;14.18;;;5.70;99.90;;;;;;5060106;28;20395;-75
2021/05/03 01:32:30;;;;;;;17.52;14.23;;;5.70;99.90;;;;;;5078116;28;20031;-75
2021/05/03 01:34:56;;;;;;;19.08;14.43;;;5.70;99.90;;;;;;5078112;28;20020;-75
2021/05/03 01:37:23;;;;;;;20.88;15.10;;;5.60;99.90;;;;;;5077984;28;20021;-75
2021/05/03 01:39:48;;;;;;;19.27;14.98;;;5.50;99.90;;;;;;5077930;28;20429;-75
2021/05/03 01:42:15;;;;;;;18.15;13.98;;;5.60;99.90;;;;;;5078068;28;20099;-75
2021/05/03 01:44:41;;;;;;;17.65;14.27;;;5.60;99.90;;;;;;5077898;28;20028;-75
2021/05/03 01:47:08;;;;;;;20.00;15.25;;;5.50;99.90;;;;;;5043257;28;20031;-75
2021/05/03 01:49:34;;;;;;;19.48;14.65;;;5.60;99.90;;;;;;5060041;28;20044;-75
2021/05/03 01:52:00;;;;;;;18.85;13.95;;;5.70;99.90;;;;;;5077937;28;20028;-75
2021/05/03 01:54:27;;;;;;;20.17;14.38;;;5.70;99.90;;;;;;5056354;28;20493;-75
2021/05/03 01:56:53;;;;;;;22.15;14.50;;;5.70;99.90;;;;;;5074528;28;20113;-75
2021/05/03 01:59:18;;;;;;;17.33;14.18;;;5.70;99.90;;;;;;5074573;28;20479;-75
2021/05/03 02:01:44;;;;;;;20.17;14.90;;;5.70;99.90;;;;;;5074702;28;20406;-75
2021/05/03 02:04:10;;;;;;;19.42;13.85;;;5.80;99.90;;;;;;5074649;28;20403;-75
2021/05/03 02:06:36;;;;;;;18.48;14.77;;;5.80;99.90;;;;;;5074348;28;20021;-75
2021/05/03 02:09:10;;;;;;;17.88;14.13;;;5.80;99.90;;;;;;5074539;28;20537;-75
2021/05/03 02:11:36;;;;;;;21.05;15.52;;;5.70;99.90;;;;;;5074051;28;20020;-75
2021/05/03 02:14:03;;;;;;;20.88;14.45;;;5.60;99.90;;;;;;5074450;28;20100;-75
2021/05/03 02:16:30;;;;;;;19.33;13.80;;;5.70;99.90;;;;;;5074150;28;20025;-75
2021/05/03 02:18:55;;;;;;;18.00;14.02;;;5.80;99.90;;;;;;5074318;28;20499;-76
2021/05/03 02:21:21;;;;;;;19.83;15.07;;;5.90;99.90;;;;;;5056329;28;20029;-75
2021/05/03 02:23:47;;;;;;;17.83;13.50;;;5.90;99.90;;;;;;5074413;28;20021;-75
2021/05/03 02:26:13;;;;;;;18.70;14.07;;;5.80;99.90;;;;;;5056188;28;20074;-75
2021/05/03 02:28:39;;;;;;;17.05;13.57;;;5.60;99.90;;;;;;5074279;28;20021;-75
2021/05/03 02:31:06;;;;;;;19.55;15.10;;;5.70;99.90;;;;;;5074100;28;20368;-75
2021/05/03 02:33:32;;;;;;;17.73;13.77;;;5.70;99.90;;;;;;5074005;28;20033;-75
2021/05/03 02:35:57;;;;;;;18.77;14.75;;;5.80;99.90;;;;;;5074048;28;20040;-75
2021/05/03 02:38:24;;;;;;;18.65;14.43;;;5.80;99.90;;;;;;5074005;28;20024;-75
2021/05/03 02:40:50;;;;;;;18.65;14.70;;;5.80;99.90;;;;;;5073700;28;20017;-75
2021/05/03 02:43:15;;;;;;;17.85;14.55;;;5.80;99.90;;;;;;5056064;28;20024;-74
2021/05/03 02:45:41;;;;;;;21.45;15.30;;;5.90;99.90;;;;;;5055827;28;20495;-75
2021/05/03 02:48:07;;;;;;;23.55;15.88;;;6.00;99.90;;;;;;5055852;28;20189;-75
2021/05/03 02:50:33;;;;;;;20.85;15.63;;;5.70;99.90;;;;;;5073678;28;20025;-75
2021/05/03 02:52:59;;;;;;;19.42;15.57;;;5.60;99.90;;;;;;5073802;28;20032;-75
2021/05/03 02:55:25;;;;;;;22.00;16.08;;;5.40;99.90;;;;;;5055629;28;20074;-76
2021/05/03 02:57:51;;;;;;;23.48;17.23;;;5.50;99.90;;;;;;5038917;28;20031;-76
2021/05/03 03:00:24;;;;;;;24.83;18.08;;;5.40;99.90;;;;;;5073461;28;20103;-76
2021/05/03 03:02:49;;;;;;;22.30;14.38;;;5.40;99.90;;;;;;5073460;28;20397;-76
2021/05/03 03:05:15;;;;;;;25.08;17.77;;;5.50;99.90;;;;;;5072255;28;20028;-76
2021/05/03 03:07:41;;;;;;;22.23;16.63;;;5.40;99.90;;;;;;5073445;28;20369;-76
2021/05/03 03:10:07;;;;;;;24.60;17.10;;;5.40;99.90;;;;;;5073228;28;20027;-76
2021/05/03 03:12:34;;;;;;;24.48;18.02;;;5.30;99.90;;;;;;5055337;28;20521;-76
2021/05/03 03:15:02;;;;;;;26.67;18.25;;;5.30;99.90;;;;;;5073201;28;20059;-76
2021/05/03 03:17:28;;;;;;;23.60;18.13;;;5.40;99.90;;;;;;5072884;28;20032;-76
2021/05/03 03:19:54;;;;;;;30.30;18.48;;;5.70;99.90;;;;;;5073032;28;20035;-76
2021/05/03 03:22:19;;;;;;;24.65;17.90;;;5.90;99.90;;;;;;5073083;28;20024;-76
2021/05/03 03:24:45;;;;;;;26.33;18.73;;;5.80;99.90;;;;;;5072947;28;20021;-76
2021/05/03 03:27:11;;;;;;;23.63;17.65;;;5.60;99.90;;;;;;5054762;28;20024;-76
2021/05/03 03:29:37;;;;;;;23.42;18.38;;;5.60;99.90;;;;;;5054950;28;20036;-76
2021/05/03 03:32:03;;;;;;;24.10;17.88;;;5.60;99.90;;;;;;5038376;28;20490;-76
2021/05/03 03:34:28;;;;;;;23.00;17.77;;;5.60;99.90;;;;;;5054869;28;20036;-76
2021/05/03 03:36:54;;;;;;;26.75;18.13;;;5.50;99.90;;;;;;5054815;28;20028;-76
2021/05/03 03:39:20;;;;;;;33.67;18.92;;;5.70;99.90;;;;;;5072641;28;20107;-76
2021/05/03 03:41:45;;;;;;;24.48;18.10;;;5.80;99.90;;;;;;5072506;28;20557;-76
2021/05/03 03:44:11;;;;;;;23.45;17.55;;;5.90;99.90;;;;;;5072680;28;20074;-76
2021/05/03 03:46:37;;;;;;;25.88;18.13;;;5.80;99.90;;;;;;5072678;28;20035;-76
2021/05/03 03:49:04;;;;;;;23.42;18.38;;;5.90;99.90;;;;;;5054658;28;20024;-76
2021/05/03 03:51:30;;;;;;;22.98;17.77;;;6.10;99.90;;;;;;5072506;28;20021;-76
2021/05/03 03:53:55;;;;;;;22.98;17.20;;;5.90;99.90;;;;;;5054610;28;20480;-76
2021/05/03 03:56:22;;;;;;;22.83;16.98;;;5.80;99.90;;;;;;5072171;28;20506;-76
2021/05/03 03:58:49;;;;;;;23.13;17.60;;;5.80;99.90;;;;;;5054558;28;20035;-76
2021/05/03 04:01:15;;;;;;;24.23;17.85;;;5.70;99.90;;;;;;5054579;28;20523;-76
2021/05/03 04:03:50;;;;;;;25.52;18.85;;;5.50;99.90;;;;;;5072275;28;20044;-76
2021/05/03 04:06:26;;;;;;;27.08;20.35;;;5.40;99.90;;;;;;5072159;28;20032;-76
2021/05/03 04:25:18;;;;;;;27.38;20.13;;;5.40;99.90;;;;;;5071964;28;20392;-76
2021/05/03 04:27:44;;;;;;;29.23;19.33;;;5.40;99.90;;;;;;5054053;28;20017;-76
2021/05/03 04:30:11;;;;;;;26.30;18.48;;;5.40;99.90;;;;;;5072286;28;20077;-76
2021/05/03 04:32:37;;;;;;;25.65;19.83;;;5.60;99.90;;;;;;5072120;28;20024;-76
2021/05/03 04:35:04;;;;;;;25.60;19.50;;;5.70;99.90;;;;;;5071996;28;20043;-76
2021/05/03 04:37:30;;;;;;;27.90;20.38;;;5.80;99.90;;;;;;5071611;28;20089;-76
2021/05/03 04:39:56;;;;;;;27.15;20.15;;;5.80;99.90;;;;;;5054000;28;20418;-76
2021/05/03 04:42:22;;;;;;;27.95;18.98;;;6.00;99.90;;;;;;5071819;28;20020;-76
2021/05/03 04:44:48;;;;;;;29.42;21.08;;;6.10;99.90;;;;;;5053986;28;20028;-76
2021/05/03 04:47:14;;;;;;;26.83;20.40;;;6.20;99.90;;;;;;5071686;28;20025;-76
2021/05/03 04:49:40;;;;;;;25.20;19.35;;;6.20;99.90;;;;;;5071963;28;20129;-76
2021/05/03 04:52:06;;;;;;;24.15;18.45;;;6.10;99.90;;;;;;5071665;28;20102;-76
2021/05/03 04:54:33;;;;;;;30.02;19.92;;;6.00;99.90;;;;;;5053749;28;20025;-76
2021/05/03 04:56:58;;;;;;;23.73;17.75;;;5.90;99.90;;;;;;5053468;28;20028;-76
2021/05/03 04:59:24;;;;;;;26.75;18.77;;;6.00;99.90;;;;;;5071689;28;20029;-76
2021/05/03 05:01:50;;;;;;;22.88;18.23;;;6.00;99.90;;;;;;5071587;28;20031;-76
2021/05/03 05:04:15;;;;;;;23.73;18.27;;;6.00;99.90;;;;;;5071740;28;20024;-76
2021/05/03 05:06:41;;;;;;;24.85;19.35;;;6.00;99.90;;;;;;5053366;28;20020;-76
2021/05/03 05:09:08;;;;;;;26.23;18.00;;;6.10;99.90;;;;;;5071614;28;20024;-76
2021/05/03 05:11:34;;;;;;;27.45;18.73;;;6.20;99.90;;;;;;5071511;28;20017;-76
2021/05/03 05:14:00;;;;;;;23.85;18.02;;;6.10;99.90;;;;;;5071500;28;20027;-76
2021/05/03 05:16:27;;;;;;;24.25;18.13;;;6.10;99.90;;;;;;5071136;28;20378;-76
2021/05/03 05:18:53;;;;;;;23.88;17.75;;;6.10;99.90;;;;;;5071374;28;20430;-76
2021/05/03 05:21:19;;;;;;;23.05;17.80;;;6.10;99.90;;;;;;5071330;28;20056;-76
2021/05/03 05:23:45;;;;;;;23.58;18.73;;;6.10;99.90;;;;;;5036907;28;20051;-76
2021/05/03 05:26:10;;;;;;;22.75;17.92;;;6.00;99.90;;;;;;5071182;28;20098;-76
2021/05/03 05:28:37;;;;;;;24.48;16.75;;;5.90;99.90;;;;;;5072511;28;20427;-76
2021/05/03 05:31:03;;;;;;;22.48;16.55;;;5.90;99.90;;;;;;5057190;28;20024;-76
2021/05/03 05:33:29;;;;;;;22.98;18.05;;;6.00;99.90;;;;;;5074164;28;20040;-75
2021/05/03 05:35:55;;;;;;;22.60;17.85;;;6.00;99.90;;;;;;5056905;28;20431;-75
2021/05/03 05:38:21;;;;;;;20.80;16.30;;;5.90;99.90;;;;;;5075063;28;20046;-76
2021/05/03 05:40:47;;;;;;;24.05;18.00;;;5.90;99.90;;;;;;5073891;28;20020;-76
2021/05/03 05:43:13;;;;;;;21.05;17.08;;;5.90;99.90;;;;;;5074771;28;20024;-76
2021/05/03 05:45:39;;;;;;;20.90;16.08;;;6.00;99.90;;;;;;5074651;28;20494;-76
2021/05/03 05:48:06;;;;;;;20.05;15.80;;;5.90;99.90;;;;;;5074800;28;20035;-76
2021/05/03 05:50:32;;;;;;;22.25;15.25;;;5.80;99.90;;;;;;5054668;28;20142;-76
2021/05/03 05:52:58;;;;;;;21.45;15.98;;;5.90;99.90;;;;;;5054692;28;20025;-76
2021/05/03 05:55:24;;;;;;;22.20;17.33;;;5.90;99.90;;;;;;5054474;28;20451;-75
2021/05/03 05:57:50;;;;;;;21.52;16.63;;;6.00;99.90;;;;;;5064430;28;20051;-76
2021/05/03 06:00:17;;;;;;;18.63;13.60;;;6.10;99.90;;;;;;5056763;28;20039;-76
2021/05/03 06:02:43;;;;;;;20.30;16.10;;;6.10;99.90;;;;;;5056688;28;20024;-76
2021/05/03 06:05:09;;;;;;;21.88;15.02;;;6.20;99.90;;;;;;5074452;28;20055;-76
2021/05/03 06:07:35;;;;;;;19.25;14.40;;;6.30;99.90;;;;;;5056551;28;20133;-76
2021/05/03 06:10:01;;;;;;;18.08;14.70;;;6.30;99.90;;;;;;5074475;28;20030;-76
2021/05/03 06:12:26;;;;;;;21.27;15.98;;;6.40;99.90;;;;;;5074262;28;20063;-76
2021/05/03 06:14:53;;;;;;;22.40;16.05;;;6.50;99.90;;;;;;5074221;28;20016;-76
2021/05/03 06:17:20;;;;;;;19.55;14.55;;;6.50;99.90;;;;;;5073778;28;20044;-76
2021/05/03 06:19:45;;;;;;;19.60;13.77;;;6.50;99.90;;;;;;5054809;28;20031;-76
2021/05/03 06:22:12;;;;;;;18.70;14.23;;;6.50;99.90;;;;;;5055921;28;20021;-76
2021/05/03 06:24:37;;;;;;;18.88;14.63;;;6.50;99.90;;;;;;5074162;28;20020;-76
2021/05/03 06:27:03;;;;;;;20.23;14.25;;;6.60;99.90;;;;;;5074256;28;20021;-76
2021/05/03 06:29:29;;;;;;;18.95;14.25;;;6.70;99.90;;;;;;5055987;28;20031;-76
2021/05/03 06:31:57;;;;;;;18.23;13.30;;;6.90;99.90;;;;;;5073769;28;20476;-76
2021/05/03 06:34:27;;;;;;;19.08;13.45;;;7.10;99.90;;;;;;5055886;28;20029;-76
2021/05/03 06:36:54;;;;;;;18.98;13.82;;;7.20;99.90;;;;;;5073479;28;20051;-76
2021/05/03 06:39:20;;;;;;;17.58;13.75;;;7.20;99.90;;;;;;5055425;28;20029;-76
2021/05/03 06:41:45;;;;;;;17.00;13.57;;;7.20;99.90;;;;;;5073707;28;20028;-76
2021/05/03 06:44:11;;;;;;;18.08;13.18;;;7.20;99.90;;;;;;5071977;28;20017;-75
2021/05/03 06:46:38;;;;;;;17.08;13.38;;;7.40;99.90;;;;;;5066213;28;20121;-76
2021/05/03 06:49:04;;;;;;;17.48;14.00;;;7.30;99.90;;;;;;5069996;28;20016;-75
2021/05/03 06:51:31;;;;;;;20.38;13.35;;;7.10;99.90;;;;;;5071581;28;20383;-76
2021/05/03 06:53:57;;;;;;;25.58;14.18;;;7.20;99.90;;;;;;5067002;28;20361;-76
2021/05/03 06:56:24;;;;;;;18.10;13.25;;;7.40;99.90;;;;;;5072404;28;20046;-76
2021/05/03 06:58:50;;;;;;;35.83;16.08;;;7.30;99.90;;;;;;5070579;28;20086;-76
2021/05/03 07:01:15;;;;;;;19.80;13.82;;;7.40;99.90;;;;;;5071817;28;20032;-75
2021/05/03 07:03:43;;;;;;;19.50;13.75;;;7.60;99.90;;;;;;5063696;28;20025;-76
2021/05/03 07:06:11;;;;;;;19.00;14.00;;;7.60;99.90;;;;;;5071916;28;20025;-76
2021/05/03 07:08:37;;;;;;;17.33;13.43;;;7.90;99.90;;;;;;5072307;28;20020;-76
2021/05/03 07:11:12;;;;;;;15.23;12.63;;;8.00;99.90;;;;;;5071781;28;20059;-76
2021/05/03 07:13:38;;;;;;;23.33;14.45;;;7.80;99.90;;;;;;5071985;28;20115;-76
2021/05/03 07:16:05;;;;;;;21.70;14.00;;;7.50;99.90;;;;;;5071821;28;20025;-76
2021/05/03 07:18:31;;;;;;;21.75;13.30;;;7.50;99.90;;;;;;5072165;28;20025;-76
2021/05/03 07:20:56;;;;;;;23.33;14.45;;;7.60;99.90;;;;;;5071589;28;20028;-76
2021/05/03 07:23:22;;;;;;;26.27;15.07;;;7.60;99.90;;;;;;5071946;28;20040;-76
2021/05/03 07:25:48;;;;;;;20.15;14.63;;;7.70;99.90;;;;;;5071895;28;20035;-76
2021/05/03 07:28:14;;;;;;;23.90;14.23;;;7.60;99.90;;;;;;5071199;28;20027;-76
2021/05/03 07:30:40;;;;;;;18.42;13.85;;;7.50;99.90;;;;;;5064907;28;20035;-73
2021/05/03 07:33:06;;;;;;;21.67;14.55;;;7.70;99.90;;;;;;5071052;28;20037;-73
2021/05/03 07:35:31;;;;;;;33.10;16.65;;;7.60;99.90;;;;;;5053831;28;20028;-76
2021/05/03 07:37:57;;;;;;;19.00;14.48;;;7.40;99.90;;;;;;5067009;28;20062;-76
2021/05/03 07:40:23;;;;;;;20.90;15.80;;;7.60;99.90;;;;;;5071394;28;20028;-76
2021/05/03 07:42:49;;;;;;;22.80;15.43;;;7.50;99.90;;;;;;5071458;28;20138;-76
2021/05/03 07:45:15;;;;;;;19.48;14.90;;;7.50;99.90;;;;;;5070550;28;20024;-76
2021/05/03 07:47:42;;;;;;;22.17;15.63;;;7.60;99.90;;;;;;5071278;28;20042;-76
2021/05/03 07:50:08;;;;;;;19.98;15.23;;;7.50;99.90;;;;;;5070911;28;20063;-76
2021/05/03 07:52:34;;;;;;;19.73;14.18;;;7.20;99.90;;;;;;5070809;28;20549;-76
2021/05/03 07:55:00;;;;;;;20.55;15.00;;;6.70;99.90;;;;;;5070803;28;20028;-76
2021/05/03 07:57:27;;;;;;;20.75;14.30;;;6.50;99.90;;;;;;5070972;28;20024;-76
2021/05/03 07:59:53;;;;;;;23.55;15.98;;;6.20;99.90;;;;;;5062782;28;20052;-76
2021/05/03 08:02:19;;;;;;;21.90;14.30;;;6.30;99.90;;;;;;5066425;28;20025;-76
2021/05/03 08:04:44;;;;;;;19.10;14.45;;;6.20;99.90;;;;;;5071211;28;20090;-76
2021/05/03 08:07:10;;;;;;;24.92;14.88;;;6.60;99.90;;;;;;5043454;28;20618;-76
2021/05/03 08:09:37;;;;;;;21.55;14.82;;;7.20;99.90;;;;;;5071242;28;20108;-76
2021/05/03 08:12:04;;;;;;;19.85;14.38;;;7.50;99.90;;;;;;5061782;28;20084;-75
2021/05/03 08:14:31;;;;;;;19.52;13.80;;;7.90;99.90;;;;;;5071332;28;20028;-76
2021/05/03 08:17:04;;;;;;;19.77;14.10;;;8.00;99.90;;;;;;5071242;28;20029;-77
2021/05/03 08:19:31;;;;;;;17.42;13.32;;;8.30;99.90;;;;;;5063550;28;20118;-76
2021/05/03 08:21:58;;;;;;;15.88;12.25;;;8.80;99.90;;;;;;5072038;28;20059;-75
2021/05/03 08:24:24;;;;;;;16.50;11.50;;;8.80;99.90;;;;;;5059563;28;20369;-76
2021/05/03 08:26:50;;;;;;;14.43;11.35;;;9.00;99.90;;;;;;5070867;28;20107;-74
2021/05/03 08:29:16;;;;;;;16.98;11.57;;;9.50;99.90;;;;;;5070323;28;20142;-74
2021/05/03 08:31:41;;;;;;;15.55;10.43;;;9.90;96.60;;;;;;5070617;28;20107;-73
2021/05/03 08:34:07;;;;;;;17.75;10.23;;;10.10;92.40;;;;;;5070867;28;20117;-74
2021/05/03 08:36:35;;;;;;;33.20;14.05;;;10.10;90.40;;;;;;5070809;28;20127;-74
2021/05/03 08:39:03;;;;;;;25.13;11.98;;;9.90;94.20;;;;;;5070289;28;20017;-74
2021/05/03 08:41:28;;;;;;;21.23;12.70;;;9.40;95.40;;;;;;5061739;28;20040;-74
2021/05/03 08:43:54;;;;;;;22.50;12.93;;;9.20;97.40;;;;;;5060921;28;20472;-74
2021/05/03 08:46:27;;;;;;;17.17;11.55;;;9.00;97.30;;;;;;5070085;28;20021;-76
2021/05/03 08:49:05;;;;;;;18.35;11.07;;;8.90;97.70;;;;;;5053656;28;20020;-74
2021/05/03 08:51:36;;;;;;;15.10;9.50;;;9.30;97.70;;;;;;5069454;28;20036;-74
2021/05/03 08:54:15;;;;;;;16.38;8.75;;;9.80;92.30;;;;;;5071002;28;20021;-76
2021/05/03 08:56:40;;;;;;;10.73;7.20;;;10.20;82.40;;;;;;5066494;28;20017;-75
2021/05/03 08:59:06;;;;;;;10.18;7.03;;;10.70;72.40;;;;;;5070659;28;20035;-74
2021/05/03 09:01:32;;;;;;;9.75;7.15;;;11.20;73.60;;;;;;5049756;28;20028;-74
2021/05/03 09:03:59;;;;;;;13.35;7.28;;;10.90;70.20;;;;;;5073472;28;20100;-73
2021/05/03 09:06:25;;;;;;;10.18;6.70;;;10.90;67.50;;;;;;5065929;28;20020;-74
2021/05/03 09:09:07;;;;;;;24.15;7.25;;;11.20;67.80;;;;;;5074124;28;20017;-74
2021/05/03 09:11:36;;;;;;;13.52;6.80;;;10.90;65.50;;;;;;5070217;28;20040;-76
2021/05/03 09:14:12;;;;;;;13.18;6.90;;;11.40;65.30;;;;;;5051821;28;20331;-76
2021/05/03 09:16:43;;;;;;;12.45;6.90;;;11.30;64.70;;;;;;5074003;28;20048;-74
2021/05/03 09:19:10;;;;;;;16.70;7.37;;;11.90;63.60;;;;;;5069887;28;20056;-73
2021/05/03 09:21:35;;;;;;;13.48;7.57;;;11.00;63.00;;;;;;5060013;28;20274;-74
2021/05/03 09:24:28;;;;;;;14.75;8.07;;;10.60;67.50;;;;;;5074260;28;20369;-74
2021/05/03 09:27:04;;;;;;;16.35;8.18;;;10.40;66.80;;;;;;5073386;28;20028;-74
2021/05/03 09:29:33;;;;;;;33.58;8.60;;;10.20;68.50;;;;;;5074074;28;20035;-74
2021/05/03 09:32:06;;;;;;;10.80;7.15;;;10.20;69.90;;;;;;5072596;28;20020;-74
2021/05/03 09:34:46;;;;;;;16.05;10.13;;;9.90;69.10;;;;;;5059174;28;20043;-75
2021/05/03 09:37:28;;;;;;;37.42;13.32;;;9.50;81.60;;;;;;5050393;28;20514;-76
2021/05/03 09:40:06;;;;;;;19.73;10.15;;;9.40;87.00;;;;;;5072767;28;20017;-75
2021/05/03 09:42:50;;;;;;;21.52;11.60;;;9.70;89.30;;;;;;5055469;28;20013;-76
2021/05/03 09:45:26;;;;;;;18.42;10.02;;;9.20;87.00;;;;;;5066429;28;20099;-76
2021/05/03 09:47:55;;;;;;;15.73;9.15;;;9.20;87.80;;;;;;5073184;28;20024;-76
2021/05/03 09:50:23;;;;;;;13.25;8.75;;;9.70;86.00;;;;;;5059704;28;20024;-74
2021/05/03 09:53:07;;;;;;;15.25;9.25;;;10.30;84.60;;;;;;5073583;28;20103;-74
2021/05/03 09:55:46;;;;;;;13.52;8.30;;;11.00;84.10;;;;;;5073025;28;20075;-74
2021/05/03 09:58:15;;;;;;;11.25;8.65;;;11.60;78.60;;;;;;5062839;28;20021;-74
2021/05/03 10:00:43;;;;;;;11.00;7.43;;;11.80;76.70;;;;;;5072404;28;20062;-73
2021/05/03 10:03:45;;;;;;;10.98;8.27;;;12.50;73.10;;;;;;5068807;28;20020;-74
2021/05/03 10:06:13;;;;;;;11.30;8.05;;;12.70;72.90;;;;;;5069578;28;20457;-74
2021/05/03 10:08:42;;;;;;;10.30;7.55;;;13.30;71.00;;;;;;5073573;28;20029;-74
2021/05/03 10:11:09;;;;;;;10.38;7.13;;;12.40;67.60;;;;;;5072718;28;20021;-74
2021/05/03 10:13:37;;;;;;;10.30;8.35;;;11.90;67.40;;;;;;5073130;28;20215;-74
2021/05/03 10:16:04;;;;;;;9.65;6.72;;;11.70;72.30;;;;;;5069048;28;20112;-74
2021/05/03 10:18:31;;;;;;;10.02;7.88;;;11.50;68.80;;;;;;5070854;28;20033;-73
2021/05/03 10:20:57;;;;;;;12.80;6.97;;;11.50;67.50;;;;;;5073097;28;20040;-74
2021/05/03 10:23:25;;;;;;;11.55;7.40;;;11.00;69.10;;;;;;5072489;28;20464;-74
2021/05/03 10:25:56;;;;;;;11.57;8.30;;;10.50;72.60;;;;;;5054988;28;20021;-74
2021/05/03 10:28:22;;;;;;;12.25;8.10;;;10.10;74.70;;;;;;5052512;28;20086;-74
2021/05/03 10:30:49;;;;;;;14.38;8.27;;;10.00;76.60;;;;;;5054967;28;20021;-74
2021/05/03 10:33:16;;;;;;;15.25;7.43;;;10.20;76.10;;;;;;5072156;28;20024;-74
2021/05/03 10:35:47;;;;;;;11.30;7.03;;;10.40;71.90;;;;;;5060821;28;20387;-74
2021/05/03 10:38:33;;;;;;;21.25;6.72;;;10.40;70.10;;;;;;5066094;28;20563;-74
2021/05/03 10:41:01;;;;;;;10.32;6.45;;;10.40;67.40;;;;;;5073021;28;20032;-76
2021/05/03 10:43:36;;;;;;;9.23;6.38;;;10.50;67.30;;;;;;5078152;22;20088;-71
2021/05/03 10:49:03;;;;;;;10.63;6.60;;;10.80;68.70;;;;;;5053088;28;20124;-71
2021/05/03 10:54:19;;;;;;;18.33;7.78;;;10.70;71.40;;;;;;5053421;28;20060;-72
2021/05/03 10:56:45;;;;;;;11.18;6.70;;;10.70;72.00;;;;;;5035206;28;20025;-72
2021/05/03 10:59:15;;;;;;;9.57;6.07;;;10.80;71.10;;;;;;5035167;28;20056;-72
2021/05/03 11:01:54;;;;;;;10.93;6.45;;;10.80;70.30;;;;;;5030796;28;20536;-72
2021/05/03 11:04:20;;;;;;;14.48;5.97;;;11.20;71.00;;;;;;5053490;28;20079;-72
2021/05/03 11:06:46;;;;;;;10.32;5.85;;;11.20;69.40;;;;;;5053225;28;20029;-72
2021/05/03 11:09:31;;;;;;;10.45;4.95;;;11.70;68.30;;;;;;5035519;28;20346;-72
2021/05/03 11:12:02;;;;;;;5.97;5.07;;;12.30;65.40;;;;;;5035423;28;20013;-72
2021/05/03 11:14:31;;;;;;;7.40;4.75;;;11.80;62.70;;;;;;5035087;28;20017;-72
2021/05/03 11:17:07;;;;;;;7.47;4.80;;;11.40;64.40;;;;;;5035287;28;20029;-74
2021/05/03 11:19:52;;;;;;;21.65;5.63;;;11.50;64.60;;;;;;5052253;28;20025;-71
2021/05/03 11:22:21;;;;;;;6.85;4.38;;;11.70;65.10;;;;;;5049095;28;20421;-72
2021/05/03 11:25:00;;;;;;;5.93;4.07;;;12.30;60.60;;;;;;5052125;28;20444;-72
2021/05/03 11:28:08;;;;;;;4.93;3.90;;;12.70;58.70;;;;;;5033465;28;20066;-72
2021/05/03 11:33:13;;;;;;;10.02;3.95;;;13.50;56.20;;;;;;5051906;28;20029;-72
2021/05/03 11:41:03;;;;;;;5.97;4.28;;;14.70;51.60;;;;;;5051868;28;20029;-73
2021/05/03 11:46:07;;;;;;;13.95;4.20;;;15.50;52.00;;;;;;5033388;28;20108;-74
2021/05/03 11:48:34;;;;;;;6.38;4.75;;;15.40;50.40;;;;;;5045051;28;20029;-73
2021/05/03 11:51:06;;;;;;;9.38;4.40;;;15.40;51.30;;;;;;5033486;28;20810;-72
2021/05/03 11:53:41;;;;;;;6.38;4.40;;;15.50;53.50;;;;;;5049992;28;20082;-73
2021/05/03 11:56:27;;;;;;;10.93;4.80;;;15.00;52.10;;;;;;5033731;28;20116;-73
2021/05/03 11:58:58;;;;;;;8.77;4.65;;;14.80;51.70;;;;;;5033107;28;20043;-73
2021/05/03 12:01:27;;;;;;;6.45;4.10;;;14.60;51.20;;;;;;5051872;28;20029;-72
2021/05/03 12:03:59;;;;;;;6.63;4.07;;;14.60;53.30;;;;;;5052260;28;20472;-72
2021/05/03 12:06:38;;;;;;;;;;;14.80;52.40;;;;;;5053298;28;20024;-72
2021/05/03 12:09:10;;;;;;;9.27;4.90;;;14.80;52.60;;;;;;5051146;28;20261;-72
2021/05/03 12:11:38;;;;;;;6.38;4.60;;;14.60;53.20;;;;;;5046684;28;20047;-72
2021/05/03 12:14:05;;;;;;;6.13;4.35;;;14.30;53.50;;;;;;5068186;28;20025;-71
2021/05/03 12:16:34;;;;;;;4.13;3.67;;;13.70;54.60;;;;;;5035581;28;20357;-73
2021/05/03 12:19:10;;;;;;;4.68;4.13;;;13.70;54.50;;;;;;5019255;28;20032;-72
2021/05/03 12:21:44;;;;;;;8.10;4.28;;;13.50;53.60;;;;;;5019439;28;20055;-72
2021/05/03 12:24:18;;;;;;;5.80;4.18;;;13.20;54.90;;;;;;5014662;28;20111;-72
2021/05/03 12:27:00;;;;;;;4.40;3.67;;;13.20;54.20;;;;;;5052950;28;20488;-72
2021/05/03 12:29:32;;;;;;;3.78;3.33;;;13.00;53.80;;;;;;5045757;28;20021;-72
2021/05/03 12:32:03;;;;;;;6.35;3.67;;;13.20;53.50;;;;;;5034770;28;20044;-72
2021/05/03 12:34:31;;;;;;;8.10;3.90;;;13.10;53.40;;;;;;5034360;28;20569;-72
2021/05/03 12:37:17;;;;;;;6.60;3.92;;;13.00;54.90;;;;;;5017656;28;20116;-73
2021/05/03 12:40:06;;;;;;;4.22;3.45;;;13.40;53.30;;;;;;5053582;28;20452;-73
2021/05/03 12:42:38;;;;;;;7.63;3.72;;;13.60;53.30;;;;;;5034975;28;20029;-73
2021/05/03 12:45:17;;;;;;;42.65;8.23;;;13.70;51.90;;;;;;5019696;28;20055;-73
2021/05/03 12:48:06;;;;;;;7.95;4.10;;;13.60;53.50;;;;;;5053099;28;20381;-73
2021/05/03 12:53:33;;;;;;;8.75;3.58;;;13.70;53.00;;;;;;5049295;28;20447;-73
2021/05/03 13:25:07;;;;;;;12.10;4.10;;;14.30;49.30;;;;;;5051521;28;20059;-73
2021/05/03 13:29:47;;;;;;;6.40;4.45;;;13.80;49.90;;;;;;5051987;28;20044;-71
2021/05/03 13:32:25;;;;;;;6.88;3.30;;;14.10;51.60;;;;;;5052320;28;20158;-73
2021/05/03 13:34:54;;;;;;;4.90;3.47;;;14.20;50.60;;;;;;5033849;28;20029;-73
2021/05/03 13:37:22;;;;;;;4.97;3.95;;;14.10;50.40;;;;;;5034001;28;20032;-73
2021/05/03 13:39:57;;;;;;;3.40;2.90;;;14.50;50.20;;;;;;5031855;28;20037;-72
2021/05/03 13:42:23;;;;;;;4.95;3.72;;;14.80;49.60;;;;;;5048495;28;20021;-73
2021/05/03 13:44:51;;;;;;;5.90;4.13;;;14.80;49.00;;;;;;5051840;28;20025;-73
2021/05/03 13:47:18;;;;;;;6.78;3.40;;;14.60;48.70;;;;;;5033645;28;20484;-73
2021/05/03 13:49:47;;;;;;;7.38;4.05;;;14.50;49.20;;;;;;5034384;28;20492;-73
2021/05/03 13:52:12;;;;;;;9.52;4.25;;;14.40;51.00;;;;;;5036304;28;20032;-73